Brownsville, Texas
Current Conditions -  °F | °C
As of 8:06 PM on Sunday 21 Dec 2014 (Local Time) from KBRO Reporting Station
Haze Haze  
Wind Chill: 63°   Ceiling: 900
Heat Index: 63°   Visibility: 6mi
Dew Point: 60°   Wind: 3mph
Humidity: 90%   Direction: 10°N
Pressure: 29.93"   Gusts: NA
Location:  25.9°N, 97.49°W
Report Text: KBRO 220206Z 01003KT 6SM BR BKN009 BKN014 OVC042 17/16 A2993 RMK AO2 CIG 006V013 T01720156
Loading
Personal Weather Stations






























Interactive Weather Map New forecast layout! Learn more

10-Day Weather Forecast

Advertisements
Track Severe Weather on mobile